aviador You're here:

OMAD Decoded Metar

ABU DHABI in UNITED ARAB EMIRATES
Report Time2017-06-25 20:00:00
UTC Time2017-06-25 20:42:21
Flight Rules vfr VFR
Wind280° at 06 kt
W.Decomp.*RWY 31: 5.1 kt HW 3.2 kt LCW
W.Rank280° ranks 19
Current wind is below 280° avg. (7.1)
Visibility9000 m
Phenomena:N/A
Clouds:N/A
Expected CloudBase > 2,000 ft AGL from Temp-Dew spread
CeilingNone
Temp32°C (ISA +17)
Dew Point27°C (75% RH)
Heat Index42.3°C
QNH0998 hPa
Density Alt2,927 ft
Elevation10 ft
Report Wrong Elevation
Raw Report
METAR OMAD 252000Z 28006KT 9000 NSC 32/27 Q0998 BECMG 20005KT=

Extra information for OMAD:More info

Metar Taf Metar & Taf Last 4 Metars F.Rules Stats Wind Profile Meteogram Temp Stats Airport Information Weather charts Add Link Nearby VenuesMetar ALERT Operation Metar Decoded Social comments